Time;durP1;ratioP1;P1;durP2;ratioP2;P2;SDS_P1;SDS_P2;PMS_P1;PMS_P2;Temp;Humidity;BMP_temperature;BMP_pressure;BME280_temperature;BME280_humidity;BME280_pressure;Samples;Min_cycle;Max_cycle;Signal;HPM_P1;HPM_P2
2024/04/23 00:01:26;;;;;;;11.07;5.67;;;3.30;80.00;;;;;;5410746;26;20307;-73
2024/04/23 00:03:52;;;;;;;10.07;5.53;;;3.30;80.20;;;;;;5410423;26;20319;-71
2024/04/23 00:06:17;;;;;;;13.13;5.90;;;3.20;80.20;;;;;;5411556;26;21620;-68
2024/04/23 00:08:43;;;;;;;9.23;5.30;;;3.20;80.60;;;;;;5412561;26;20237;-71
2024/04/23 00:11:09;;;;;;;8.67;5.83;;;3.10;80.60;;;;;;5410354;26;20234;-70
2024/04/23 00:13:34;;;;;;;9.00;4.80;;;3.10;80.80;;;;;;5411471;26;20368;-71
2024/04/23 00:16:00;;;;;;;9.93;5.27;;;3.10;80.90;;;;;;5405152;26;20239;-71
2024/04/23 00:18:25;;;;;;;10.80;5.53;;;3.00;81.10;;;;;;5409519;26;20279;-72
2024/04/23 00:20:55;;;;;;;10.00;4.90;;;3.00;81.10;;;;;;5410385;26;20670;-72
2024/04/23 00:23:23;;;;;;;8.63;5.47;;;2.90;81.20;;;;;;5376986;26;20234;-73
2024/04/23 00:25:49;;;;;;;13.45;6.22;;;2.80;81.20;;;;;;5411825;26;20467;-71
2024/04/23 00:28:14;;;;;;;12.53;5.50;;;2.90;81.50;;;;;;5410340;26;20280;-70
2024/04/23 00:30:40;;;;;;;11.50;6.00;;;2.80;81.40;;;;;;5411238;26;20241;-72
2024/04/23 00:33:06;;;;;;;11.30;5.97;;;2.80;81.50;;;;;;5404079;26;20245;-72
2024/04/23 00:35:35;;;;;;;11.70;5.73;;;2.80;81.70;;;;;;5406903;26;20238;-72
2024/04/23 00:38:01;;;;;;;12.70;6.55;;;2.80;81.80;;;;;;5411577;26;20287;-72
2024/04/23 00:40:30;;;;;;;9.30;5.75;;;2.70;81.50;;;;;;5414309;26;20749;-71
2024/04/23 00:42:56;;;;;;;12.93;6.63;;;2.70;81.80;;;;;;5412090;26;20237;-71
2024/04/23 00:45:28;;;;;;;10.30;6.07;;;2.60;81.90;;;;;;5414723;26;20238;-70
2024/04/23 00:47:53;;;;;;;12.47;6.47;;;2.50;82.10;;;;;;5414926;26;20225;-71
2024/04/23 00:50:19;;;;;;;10.83;6.47;;;2.50;82.40;;;;;;5414748;26;21082;-73
2024/04/23 00:52:45;;;;;;;10.13;6.37;;;2.50;82.50;;;;;;5411655;26;20292;-69
2024/04/23 00:55:12;;;;;;;11.30;6.15;;;2.50;82.40;;;;;;5412159;26;20498;-71
2024/04/23 00:57:39;;;;;;;12.35;6.30;;;2.40;82.50;;;;;;5414568;26;20363;-70
2024/04/23 01:00:05;;;;;;;12.63;6.40;;;2.40;82.70;;;;;;5411568;26;20275;-69
2024/04/23 01:02:31;;;;;;;12.27;7.47;;;2.30;82.80;;;;;;5410695;26;20241;-70
2024/04/23 01:04:57;;;;;;;9.80;6.23;;;2.20;83.10;;;;;;5413718;26;20280;-68
2024/04/23 01:07:22;;;;;;;9.50;5.33;;;2.20;83.10;;;;;;5413283;26;20478;-69
2024/04/23 01:09:48;;;;;;;12.80;6.90;;;2.20;83.30;;;;;;5417660;26;20238;-71
2024/04/23 01:12:13;;;;;;;8.20;5.87;;;2.20;83.60;;;;;;5406363;26;20777;-72
2024/04/23 01:14:43;;;;;;;11.47;6.50;;;2.10;83.60;;;;;;5414766;26;20225;-69
2024/04/23 01:17:10;;;;;;;13.27;6.73;;;2.10;83.70;;;;;;5410660;26;20958;-69
2024/04/23 01:19:40;;;;;;;13.65;6.25;;;2.10;83.80;;;;;;5411666;26;20460;-71
2024/04/23 01:22:22;;;;;;;9.95;5.68;;;2.10;83.80;;;;;;5410253;26;21482;-71
2024/04/23 01:25:11;;;;;;;11.65;6.32;;;2.00;83.80;;;;;;5403333;26;20238;-71
2024/04/23 01:27:37;;;;;;;11.00;6.65;;;2.00;83.80;;;;;;5391349;26;20234;-71
2024/04/23 01:30:05;;;;;;;12.43;7.15;;;2.00;84.00;;;;;;5413353;26;20292;-70
2024/04/23 01:32:34;;;;;;;11.20;6.65;;;2.00;84.00;;;;;;5409888;26;20245;-71
2024/04/23 01:35:00;;;;;;;18.63;7.57;;;1.90;84.00;;;;;;5414578;26;20234;-70
2024/04/23 01:37:28;;;;;;;11.80;6.27;;;1.90;84.10;;;;;;5414495;26;20632;-69
2024/04/23 01:39:55;;;;;;;13.27;6.38;;;1.90;84.30;;;;;;5391724;26;20776;-72
2024/04/23 01:42:22;;;;;;;12.23;5.82;;;1.90;84.30;;;;;;5405610;26;20246;-68
2024/04/23 01:44:48;;;;;;;11.48;7.05;;;1.80;84.60;;;;;;5413702;26;20269;-69
2024/04/23 01:47:13;;;;;;;14.23;6.90;;;1.80;84.60;;;;;;5412772;26;20230;-72
2024/04/23 01:49:39;;;;;;;14.27;6.70;;;1.80;84.70;;;;;;5407107;26;20320;-72
2024/04/23 01:52:05;;;;;;;12.60;6.72;;;1.80;84.90;;;;;;5405306;26;20249;-69
2024/04/23 01:54:31;;;;;;;14.00;7.20;;;1.80;84.90;;;;;;5414559;26;20284;-70
2024/04/23 01:57:00;;;;;;;12.90;7.40;;;1.80;84.90;;;;;;5414616;26;20287;-72
2024/04/23 01:59:25;;;;;;;12.50;6.35;;;1.70;84.70;;;;;;5422077;26;20278;-69
2024/04/23 02:01:54;;;;;;;14.97;6.50;;;1.70;84.90;;;;;;5412551;26;20245;-72
2024/04/23 02:04:22;;;;;;;13.38;7.20;;;1.80;85.00;;;;;;5415853;26;20238;-72
2024/04/23 02:06:48;;;;;;;12.27;6.53;;;1.90;85.20;;;;;;5416103;26;20345;-70
2024/04/23 02:09:15;;;;;;;12.85;6.15;;;1.80;84.70;;;;;;5417640;26;20237;-74
2024/04/23 02:11:40;;;;;;;18.08;7.38;;;1.80;84.70;;;;;;5418872;26;20238;-72
2024/04/23 02:14:06;;;;;;;12.10;6.57;;;1.80;84.90;;;;;;5408419;26;20784;-71
2024/04/23 02:16:32;;;;;;;10.63;6.90;;;1.80;85.00;;;;;;5413193;26;20463;-72
2024/04/23 02:18:57;;;;;;;13.30;7.13;;;1.80;84.90;;;;;;5414679;26;20304;-73
2024/04/23 02:21:23;;;;;;;15.60;7.17;;;1.80;84.90;;;;;;5416352;26;21165;-73
2024/04/23 02:23:48;;;;;;;14.03;7.17;;;1.80;84.90;;;;;;5411835;26;20238;-71
2024/04/23 02:26:14;;;;;;;12.43;7.80;;;1.80;84.90;;;;;;5414624;26;20241;-76
2024/04/23 02:28:39;;;;;;;14.77;7.60;;;1.80;84.90;;;;;;5413614;26;20230;-74
2024/04/23 02:31:05;;;;;;;11.30;6.47;;;1.80;84.90;;;;;;5412006;26;20241;-77
2024/04/23 02:33:30;;;;;;;19.53;9.67;;;1.80;84.90;;;;;;5412718;26;20233;-70
2024/04/23 02:35:56;;;;;;;14.77;8.27;;;1.80;84.90;;;;;;5414853;26;20292;-71
2024/04/23 02:38:22;;;;;;;14.83;7.97;;;1.80;84.90;;;;;;5414876;26;20238;-70
2024/04/23 02:40:47;;;;;;;14.27;8.10;;;1.80;84.90;;;;;;5413128;26;20318;-72
2024/04/23 02:43:13;;;;;;;19.10;7.57;;;1.70;84.70;;;;;;5412175;26;20249;-70
2024/04/23 02:45:38;;;;;;;11.50;6.83;;;1.70;84.90;;;;;;5412716;26;20275;-71
2024/04/23 02:48:04;;;;;;;13.87;7.50;;;1.70;84.70;;;;;;5418832;26;20233;-75
2024/04/23 02:50:30;;;;;;;15.33;7.80;;;1.70;84.70;;;;;;5418435;26;20355;-70
2024/04/23 02:52:55;;;;;;;14.93;7.17;;;1.50;84.70;;;;;;5412759;26;20249;-71
2024/04/23 02:55:21;;;;;;;14.47;7.27;;;1.50;84.90;;;;;;5412011;26;20238;-70
2024/04/23 02:57:46;;;;;;;18.20;7.97;;;1.50;84.90;;;;;;5412705;26;20330;-72
2024/04/23 03:00:12;;;;;;;14.33;7.80;;;1.50;84.90;;;;;;5413265;26;20234;-72
2024/04/23 03:02:38;;;;;;;18.70;8.15;;;1.40;84.90;;;;;;5409341;26;20296;-72
2024/04/23 03:05:04;;;;;;;12.23;7.00;;;1.40;85.20;;;;;;5413507;26;20230;-76
2024/04/23 03:07:29;;;;;;;17.03;8.57;;;1.50;85.20;;;;;;5415353;26;20233;-71
2024/04/23 03:09:55;;;;;;;14.27;8.13;;;1.50;85.20;;;;;;5410090;26;20539;-71
2024/04/23 03:12:20;;;;;;;12.10;7.63;;;1.40;85.00;;;;;;5409059;26;20334;-70
2024/04/23 03:14:46;;;;;;;14.70;8.23;;;1.40;85.20;;;;;;5411889;26;20241;-71
2024/04/23 03:17:12;;;;;;;14.60;8.10;;;1.30;85.20;;;;;;5411839;26;20593;-72
2024/04/23 03:19:37;;;;;;;16.07;7.97;;;1.30;85.30;;;;;;5382024;26;20268;-72
2024/04/23 03:22:03;;;;;;;16.20;7.97;;;1.30;85.30;;;;;;5376489;26;20570;-72
2024/04/23 03:24:28;;;;;;;20.20;9.10;;;1.20;85.30;;;;;;5416568;26;20614;-71
2024/04/23 03:26:54;;;;;;;18.73;9.37;;;1.20;85.50;;;;;;5413232;26;20233;-74
2024/04/23 03:29:20;;;;;;;12.80;7.53;;;1.10;85.50;;;;;;5413284;26;20671;-71
2024/04/23 03:31:46;;;;;;;13.57;7.60;;;1.10;85.70;;;;;;5412612;26;20261;-72
2024/04/23 03:34:12;;;;;;;16.45;9.52;;;1.10;85.70;;;;;;5411761;26;20249;-72
2024/04/23 03:36:37;;;;;;;16.70;8.60;;;1.10;85.90;;;;;;5412966;26;20268;-73
2024/04/23 03:39:03;;;;;;;16.10;8.57;;;1.10;85.90;;;;;;5416502;26;21003;-72
2024/04/23 03:41:28;;;;;;;18.90;8.93;;;1.10;85.90;;;;;;5409716;26;20233;-73
2024/04/23 03:43:54;;;;;;;20.03;8.87;;;1.10;86.00;;;;;;5407777;26;20327;-74
2024/04/23 03:46:20;;;;;;;12.63;7.00;;;1.10;86.00;;;;;;5410172;26;20292;-74
2024/04/23 03:48:45;;;;;;;15.97;8.20;;;1.20;86.00;;;;;;5404152;26;20230;-73
2024/04/23 03:51:11;;;;;;;17.70;8.50;;;1.20;86.00;;;;;;5409642;26;20285;-72
2024/04/23 03:53:37;;;;;;;19.03;9.60;;;1.10;85.70;;;;;;5420357;26;20226;-72
2024/04/23 03:56:02;;;;;;;19.80;9.70;;;1.10;85.90;;;;;;5425720;26;20463;-73
2024/04/23 03:58:28;;;;;;;15.10;9.00;;;1.00;85.90;;;;;;5413404;26;20234;-75
2024/04/23 04:00:54;;;;;;;18.80;9.63;;;1.00;86.00;;;;;;5417113;26;20233;-71
2024/04/23 04:06:04;;;;;;;17.70;8.00;;;1.00;86.00;;;;;;5421286;26;20268;-76
2024/04/23 04:08:30;;;;;;;14.63;8.20;;;1.00;86.30;;;;;;5410052;26;20234;-72
2024/04/23 04:10:55;;;;;;;18.45;9.35;;;1.00;86.30;;;;;;5422349;26;20283;-72
2024/04/23 04:13:21;;;;;;;21.57;10.03;;;0.90;86.20;;;;;;5415127;26;20237;-71
2024/04/23 04:15:47;;;;;;;17.87;8.90;;;0.90;86.30;;;;;;5395921;26;20284;-73
2024/04/23 04:18:12;;;;;;;17.63;9.03;;;0.90;86.30;;;;;;5410585;26;20350;-74
2024/04/23 04:20:38;;;;;;;20.37;10.20;;;0.90;86.50;;;;;;5414678;26;20234;-72
2024/04/23 04:23:04;;;;;;;19.53;10.03;;;0.90;86.60;;;;;;5408531;26;20246;-75
2024/04/23 04:25:29;;;;;;;18.80;9.60;;;0.90;86.60;;;;;;5402108;26;20229;-73
2024/04/23 04:27:55;;;;;;;17.57;9.70;;;0.90;86.50;;;;;;5411193;26;20301;-73
2024/04/23 04:30:20;;;;;;;19.10;9.43;;;1.00;86.60;;;;;;5417167;26;20233;-74
2024/04/23 04:32:46;;;;;;;20.93;9.90;;;1.00;86.60;;;;;;5408194;26;20238;-71
2024/04/23 04:35:12;;;;;;;18.10;9.50;;;1.00;86.50;;;;;;5408500;26;20225;-73
2024/04/23 04:37:38;;;;;;;20.13;10.03;;;1.10;86.50;;;;;;5411096;26;20795;-72
2024/04/23 04:40:04;;;;;;;15.93;9.32;;;1.10;86.30;;;;;;5415882;26;20367;-76
2024/04/23 04:42:30;;;;;;;19.33;10.70;;;1.10;86.00;;;;;;5417973;26;20749;-72
2024/04/23 04:44:55;;;;;;;15.70;8.60;;;1.20;86.00;;;;;;5411260;26;20664;-72
2024/04/23 04:47:21;;;;;;;17.67;9.53;;;1.20;85.70;;;;;;5416720;26;20268;-72
2024/04/23 04:49:46;;;;;;;21.90;10.70;;;1.20;85.70;;;;;;5406756;26;20237;-72
2024/04/23 04:52:12;;;;;;;22.93;10.30;;;1.20;85.60;;;;;;5407205;26;20249;-70
2024/04/23 04:54:37;;;;;;;19.57;10.40;;;1.10;85.30;;;;;;5409990;26;20233;-72
2024/04/23 04:57:04;;;;;;;15.67;8.57;;;1.10;85.30;;;;;;5410557;26;21136;-72
2024/04/23 04:59:29;;;;;;;19.55;9.48;;;1.10;85.30;;;;;;5410926;26;20660;-72
2024/04/23 05:01:55;;;;;;;20.13;10.10;;;1.10;85.50;;;;;;5404841;26;20242;-73
2024/04/23 05:04:21;;;;;;;18.67;9.03;;;1.10;85.50;;;;;;5407417;26;20800;-74
2024/04/23 05:06:46;;;;;;;16.97;8.63;;;1.20;85.30;;;;;;5406070;26;20346;-72
2024/04/23 05:09:12;;;;;;;19.60;10.50;;;1.30;85.20;;;;;;5405502;26;20823;-71
2024/04/23 05:11:37;;;;;;;19.07;9.43;;;1.30;85.20;;;;;;5407247;26;20328;-72
2024/04/23 05:14:03;;;;;;;25.17;9.73;;;1.30;85.00;;;;;;5416095;26;20295;-75
2024/04/23 05:16:28;;;;;;;18.70;9.13;;;1.30;85.00;;;;;;5414374;26;20418;-73
2024/04/23 05:18:54;;;;;;;18.10;9.00;;;1.30;84.90;;;;;;5403999;26;20301;-71
2024/04/23 05:21:20;;;;;;;18.47;8.73;;;1.40;84.70;;;;;;5407649;26;20284;-71
2024/04/23 05:23:45;;;;;;;16.17;8.43;;;1.50;84.40;;;;;;5408063;26;20233;-74
2024/04/23 05:26:11;;;;;;;17.10;8.60;;;1.50;84.10;;;;;;5412338;26;20237;-72
2024/04/23 05:28:36;;;;;;;16.83;9.07;;;1.60;84.00;;;;;;5414191;26;20371;-72
2024/04/23 05:33:46;;;;;;;15.38;8.52;;;1.80;83.10;;;;;;5412063;26;20366;-72
2024/04/23 05:36:12;;;;;;;18.27;9.33;;;1.90;82.70;;;;;;5410415;26;20765;-71
2024/04/23 05:38:38;;;;;;;17.17;8.73;;;2.00;82.20;;;;;;5378436;26;20337;-71
2024/04/23 05:41:03;;;;;;;19.83;9.17;;;2.10;81.90;;;;;;5407051;26;20237;-73
2024/04/23 05:43:29;;;;;;;16.57;9.23;;;2.20;81.70;;;;;;5406484;26;20479;-72
2024/04/23 05:45:54;;;;;;;12.93;8.20;;;2.30;81.20;;;;;;5413645;26;20230;-72
2024/04/23 05:48:58;;;;;;;16.43;9.17;;;2.20;80.00;;;;;;5415927;26;20349;-72
2024/04/23 05:52:01;;;;;;;19.10;9.75;;;2.30;79.30;;;;;;5407709;26;20246;-74
2024/04/23 05:55:04;;;;;;;16.58;9.45;;;2.30;79.20;;;;;;5411631;26;20657;-71
2024/04/23 05:57:29;;;;;;;17.02;8.52;;;2.30;79.00;;;;;;5409288;26;20229;-73
2024/04/23 05:59:55;;;;;;;14.73;8.40;;;2.20;78.60;;;;;;5409233;26;20280;-71
2024/04/23 06:02:21;;;;;;;15.77;8.77;;;2.20;78.60;;;;;;5406303;26;20241;-73
2024/04/23 06:04:47;;;;;;;14.52;9.10;;;2.20;78.60;;;;;;5414525;26;20233;-73
2024/04/23 06:07:12;;;;;;;15.30;8.40;;;2.40;78.30;;;;;;5410292;26;20234;-73
2024/04/23 06:09:38;;;;;;;20.70;10.40;;;2.50;78.00;;;;;;5417211;26;20272;-71
2024/04/23 06:12:03;;;;;;;16.17;9.07;;;2.40;77.80;;;;;;5412165;26;20238;-75
2024/04/23 06:14:29;;;;;;;14.77;8.10;;;2.20;77.40;;;;;;5417291;26;20234;-72
2024/04/23 06:17:20;;;;;;;17.67;9.57;;;2.40;77.70;;;;;;5426303;26;20333;-72
2024/04/23 06:19:50;;;;;;;14.20;8.55;;;2.50;77.70;;;;;;5410097;26;20237;-75
2024/04/23 06:22:19;;;;;;;17.85;9.25;;;2.60;77.70;;;;;;5412804;26;20262;-74
2024/04/23 06:24:47;;;;;;;13.20;8.15;;;2.70;77.60;;;;;;5408292;26;20238;-73
2024/04/23 06:27:14;;;;;;;16.95;8.88;;;2.60;77.30;;;;;;5414106;26;20234;-73
2024/04/23 06:29:40;;;;;;;20.17;9.48;;;2.60;77.40;;;;;;5410322;26;20268;-74
2024/04/23 06:32:06;;;;;;;11.80;7.87;;;2.60;77.40;;;;;;5409952;26;20241;-73
2024/04/23 06:34:31;;;;;;;18.57;8.93;;;2.60;77.10;;;;;;5413248;26;20241;-74
2024/04/23 06:36:57;;;;;;;12.57;7.90;;;2.80;77.00;;;;;;5407742;26;20534;-72
2024/04/23 06:39:22;;;;;;;15.87;8.77;;;2.90;76.70;;;;;;5409040;26;20334;-73
2024/04/23 06:41:48;;;;;;;18.50;9.50;;;3.00;76.10;;;;;;5406907;26;20342;-74
2024/04/23 06:44:13;;;;;;;13.60;8.50;;;2.80;75.70;;;;;;5411966;26;20283;-72
2024/04/23 06:46:40;;;;;;;19.67;10.10;;;2.60;75.90;;;;;;5409224;26;20345;-72
2024/04/23 06:49:05;;;;;;;18.42;9.27;;;2.60;76.40;;;;;;5403018;26;20328;-72
2024/04/23 06:51:31;;;;;;;12.87;9.00;;;2.60;76.50;;;;;;5411748;26;20253;-72
2024/04/23 06:53:57;;;;;;;16.50;9.43;;;2.70;76.50;;;;;;5405355;26;20788;-75
2024/04/23 06:56:22;;;;;;;16.13;8.17;;;2.90;76.70;;;;;;5411375;26;20283;-75
2024/04/23 06:58:48;;;;;;;14.37;8.37;;;3.00;75.80;;;;;;5412781;26;20272;-73
2024/04/23 07:01:14;;;;;;;20.83;9.83;;;3.00;75.20;;;;;;5399835;26;20268;-73
2024/04/23 07:03:40;;;;;;;13.83;7.67;;;3.10;74.90;;;;;;5411947;26;20234;-74
2024/04/23 07:06:07;;;;;;;12.60;8.17;;;3.20;74.30;;;;;;5405374;26;21355;-73
2024/04/23 07:08:32;;;;;;;15.67;8.47;;;3.40;73.90;;;;;;5407657;26;20257;-71
2024/04/23 07:10:58;;;;;;;13.13;7.37;;;3.60;72.60;;;;;;5411710;26;20538;-76
2024/04/23 07:13:24;;;;;;;14.00;7.80;;;3.80;71.30;;;;;;5375580;26;20316;-71
2024/04/23 07:15:49;;;;;;;10.67;7.70;;;3.80;70.80;;;;;;5399397;26;20239;-74
2024/04/23 07:18:15;;;;;;;13.03;8.20;;;3.90;70.40;;;;;;5410482;26;20241;-72
2024/04/23 07:20:41;;;;;;;14.00;7.90;;;3.90;69.80;;;;;;5412997;26;20276;-73
2024/04/23 07:23:06;;;;;;;12.30;7.40;;;4.00;69.80;;;;;;5408701;26;20727;-75
2024/04/23 07:25:32;;;;;;;13.27;8.70;;;4.10;69.70;;;;;;5412048;26;20245;-73
2024/04/23 07:27:58;;;;;;;15.07;7.57;;;4.00;68.80;;;;;;5411857;26;20263;-73
2024/04/23 07:30:26;;;;;;;15.13;7.57;;;3.70;68.80;;;;;;5409621;26;20351;-73
2024/04/23 07:32:54;;;;;;;14.63;8.53;;;3.70;69.50;;;;;;5406809;26;20765;-73
2024/04/23 07:35:25;;;;;;;11.80;7.90;;;3.70;69.50;;;;;;5412279;26;20475;-73
2024/04/23 07:37:51;;;;;;;12.63;7.97;;;3.90;69.70;;;;;;5412471;26;20530;-74
2024/04/23 07:40:16;;;;;;;16.43;8.60;;;4.10;69.50;;;;;;5412305;26;20464;-72
2024/04/23 07:42:43;;;;;;;14.87;8.83;;;4.10;69.40;;;;;;5410593;26;20471;-72
2024/04/23 07:45:09;;;;;;;12.80;7.97;;;4.00;69.40;;;;;;5413793;26;20233;-73
2024/04/23 07:47:35;;;;;;;12.90;7.60;;;4.00;69.20;;;;;;5410985;26;20463;-73
2024/04/23 07:50:01;;;;;;;14.20;7.83;;;4.00;69.10;;;;;;5421548;26;20236;-72
2024/04/23 07:52:27;;;;;;;18.20;7.73;;;4.10;69.10;;;;;;5375404;26;20242;-75
2024/04/23 07:54:53;;;;;;;12.50;8.27;;;4.30;69.20;;;;;;5398384;26;20469;-71
2024/04/23 07:57:19;;;;;;;12.10;7.83;;;4.40;68.90;;;;;;5412758;26;20296;-74
2024/04/23 07:59:45;;;;;;;15.90;8.60;;;4.30;68.60;;;;;;5412789;26;20467;-75
2024/04/23 08:02:10;;;;;;;14.23;8.37;;;4.20;68.90;;;;;;5380682;26;20519;-72
2024/04/23 08:04:36;;;;;;;16.30;8.07;;;4.10;69.10;;;;;;5411472;26;20287;-72
2024/04/23 08:07:02;;;;;;;17.53;9.10;;;4.10;69.50;;;;;;5408084;26;20754;-71
2024/04/23 08:09:27;;;;;;;14.17;8.27;;;4.20;69.50;;;;;;5410551;26;20237;-77
2024/04/23 08:11:53;;;;;;;14.40;8.77;;;4.40;69.50;;;;;;5409417;26;21180;-74
2024/04/23 08:14:19;;;;;;;18.73;9.10;;;4.50;69.10;;;;;;5406674;26;20292;-76
2024/04/23 08:16:46;;;;;;;14.53;8.10;;;4.60;69.20;;;;;;5412101;26;20408;-76
2024/04/23 08:19:13;;;;;;;15.50;8.93;;;4.60;69.10;;;;;;5411709;26;20234;-73
2024/04/23 08:21:39;;;;;;;12.63;8.20;;;4.70;69.40;;;;;;5414754;26;20565;-73
2024/04/23 08:24:09;;;;;;;12.07;8.23;;;5.00;69.10;;;;;;5416346;26;21024;-75
2024/04/23 08:26:34;;;;;;;12.50;7.70;;;5.20;68.30;;;;;;5405261;26;20522;-74
2024/04/23 08:29:00;;;;;;;15.50;8.57;;;5.20;67.90;;;;;;5410043;26;20483;-73
2024/04/23 08:31:26;;;;;;;13.10;8.10;;;5.20;67.70;;;;;;5401116;26;20338;-72
2024/04/23 08:33:52;;;;;;;12.93;8.57;;;5.00;68.20;;;;;;5413022;26;20317;-72
2024/04/23 08:36:17;;;;;;;17.23;8.97;;;5.10;68.30;;;;;;5413058;26;20470;-73
2024/04/23 08:38:43;;;;;;;16.30;9.00;;;5.20;68.30;;;;;;5411527;26;20245;-76
2024/04/23 08:41:17;;;;;;;14.07;8.03;;;5.20;68.50;;;;;;5402966;26;20234;-76
2024/04/23 08:44:06;;;;;;;12.67;7.93;;;5.20;67.70;;;;;;5412041;26;20528;-71
2024/04/23 08:46:32;;;;;;;16.97;8.33;;;5.30;68.00;;;;;;5375835;26;20467;-73
2024/04/23 08:49:00;;;;;;;15.90;9.33;;;5.30;68.00;;;;;;5409477;26;20527;-73
2024/04/23 08:51:27;;;;;;;15.23;8.73;;;5.40;67.70;;;;;;5404396;26;20260;-73
2024/04/23 08:53:53;;;;;;;17.40;7.87;;;5.50;67.70;;;;;;5410365;26;20463;-72
2024/04/23 08:56:23;;;;;;;13.07;8.03;;;5.70;67.50;;;;;;5415830;26;20542;-72
2024/04/23 08:58:49;;;;;;;11.77;7.77;;;6.00;66.60;;;;;;5411712;26;20557;-72
2024/04/23 09:01:34;;;;;;;15.87;7.70;;;6.00;66.30;;;;;;5410741;26;20471;-73
2024/04/23 09:04:03;;;;;;;18.03;9.70;;;6.20;66.70;;;;;;5413312;26;20560;-74
2024/04/23 09:06:29;;;;;;;15.67;7.97;;;6.20;65.80;;;;;;5405698;26;20991;-73
2024/04/23 09:08:57;;;;;;;13.90;7.63;;;6.10;66.10;;;;;;5408482;26;20455;-73
2024/04/23 09:11:27;;;;;;;13.70;7.50;;;6.20;65.70;;;;;;5411244;26;20537;-73
2024/04/23 09:13:55;;;;;;;12.60;6.97;;;6.20;65.60;;;;;;5414199;26;20471;-72
2024/04/23 09:16:22;;;;;;;13.00;7.00;;;6.40;66.30;;;;;;5414181;26;20452;-73
2024/04/23 09:18:49;;;;;;;12.47;7.60;;;6.50;65.30;;;;;;5414539;26;21076;-75
2024/04/23 09:21:15;;;;;;;10.70;6.73;;;6.60;64.40;;;;;;5410197;26;21090;-74
2024/04/23 09:23:44;;;;;;;11.90;7.67;;;6.50;64.20;;;;;;5415566;26;20460;-73
2024/04/23 09:26:10;;;;;;;11.03;7.10;;;6.60;64.80;;;;;;5413327;26;20531;-72
2024/04/23 09:28:39;;;;;;;11.70;7.80;;;6.90;64.70;;;;;;5389476;26;20463;-73
2024/04/23 09:31:05;;;;;;;13.37;7.00;;;6.90;63.20;;;;;;5410354;26;20471;-77
2024/04/23 09:33:32;;;;;;;12.20;7.40;;;6.70;63.70;;;;;;5400780;26;20467;-73
2024/04/23 09:36:06;;;;;;;13.43;7.00;;;6.70;63.80;;;;;;5417180;26;20237;-71
2024/04/23 09:38:39;;;;;;;10.50;7.07;;;6.80;64.10;;;;;;5408053;26;20612;-75
2024/04/23 09:41:08;;;;;;;12.10;7.00;;;6.80;64.20;;;;;;5398679;26;20460;-76
2024/04/23 09:43:35;;;;;;;15.70;7.83;;;7.00;64.40;;;;;;5410960;26;20531;-73
2024/04/23 09:46:02;;;;;;;15.67;8.53;;;7.30;63.70;;;;;;5410843;26;20466;-73
2024/04/23 09:48:32;;;;;;;14.60;7.03;;;7.30;62.20;;;;;;5406788;26;21149;-73
2024/04/23 09:51:04;;;;;;;11.40;7.67;;;7.30;62.60;;;;;;5414098;26;20467;-74
2024/04/23 09:53:33;;;;;;;11.90;8.20;;;7.30;62.80;;;;;;5409461;26;21074;-71
2024/04/23 09:56:06;;;;;;;12.57;7.00;;;7.60;62.90;;;;;;5413879;26;20602;-74
2024/04/23 09:58:33;;;;;;;11.47;7.90;;;7.80;62.90;;;;;;5405470;26;20471;-75
2024/04/23 10:01:00;;;;;;;10.10;7.00;;;7.60;62.80;;;;;;5411928;26;21014;-76
2024/04/23 10:03:27;;;;;;;11.67;7.27;;;7.60;61.90;;;;;;5404125;26;21019;-72
2024/04/23 10:06:21;;;;;;;14.60;7.60;;;7.70;61.90;;;;;;5385337;26;20515;-73
2024/04/23 10:09:02;;;;;;;12.03;7.30;;;7.50;61.20;;;;;;5409859;26;20558;-75
2024/04/23 10:12:06;;;;;;;11.30;7.07;;;7.40;62.60;;;;;;5405725;26;20905;-73
2024/04/23 10:14:53;;;;;;;9.73;6.50;;;7.60;62.30;;;;;;5422470;26;20531;-75
2024/04/23 10:17:32;;;;;;;10.83;6.80;;;7.70;62.00;;;;;;5419730;26;20483;-73
2024/04/23 10:20:00;;;;;;;10.10;7.23;;;8.10;61.60;;;;;;5407910;26;20513;-74
2024/04/23 10:22:30;;;;;;;16.27;7.07;;;8.40;59.60;;;;;;5410767;26;20594;-73
2024/04/23 10:24:57;;;;;;;9.33;7.00;;;8.70;58.70;;;;;;5412882;26;20467;-73
2024/04/23 10:27:24;;;;;;;12.10;6.40;;;8.80;58.40;;;;;;5421607;26;20471;-74
2024/04/23 10:29:51;;;;;;;9.67;5.90;;;8.60;59.30;;;;;;5403392;26;20467;-73
2024/04/23 10:32:20;;;;;;;8.50;6.63;;;8.80;59.20;;;;;;5411712;26;20842;-74
2024/04/23 10:34:47;;;;;;;10.53;6.60;;;8.90;58.40;;;;;;5402358;26;20455;-74
2024/04/23 10:37:15;;;;;;;10.63;6.90;;;9.20;57.30;;;;;;5411721;26;20455;-73
2024/04/23 10:39:41;;;;;;;10.17;6.37;;;9.10;56.80;;;;;;5407814;26;20526;-75
2024/04/23 10:42:08;;;;;;;9.10;6.13;;;9.60;55.80;;;;;;5408930;26;20518;-73
2024/04/23 10:44:35;;;;;;;10.93;7.07;;;9.80;53.00;;;;;;5413949;26;20733;-75
2024/04/23 10:47:01;;;;;;;12.40;6.47;;;9.50;53.60;;;;;;5411003;26;20532;-74
2024/04/23 10:49:27;;;;;;;10.73;6.80;;;9.30;54.60;;;;;;5412277;26;21019;-73
2024/04/23 10:51:56;;;;;;;11.63;6.63;;;9.30;54.10;;;;;;5410057;26;20593;-73
2024/04/23 10:54:22;;;;;;;9.87;6.80;;;9.30;53.80;;;;;;5411958;26;20523;-73
2024/04/23 10:57:00;;;;;;;8.90;5.93;;;9.50;53.40;;;;;;5406193;26;20521;-73
2024/04/23 10:59:36;;;;;;;11.03;6.60;;;9.90;52.20;;;;;;5411072;26;20479;-73
2024/04/23 11:02:09;;;;;;;9.50;5.90;;;10.10;50.70;;;;;;5375574;26;20483;-72
2024/04/23 11:04:36;;;;;;;9.00;5.43;;;9.90;49.80;;;;;;5408338;26;20459;-75
2024/04/23 11:07:02;;;;;;;8.90;5.70;;;10.00;50.60;;;;;;5409887;26;20467;-72
2024/04/23 11:09:36;;;;;;;8.27;5.80;;;10.80;49.00;;;;;;5395610;26;20603;-72
2024/04/23 11:12:02;;;;;;;11.43;6.93;;;11.60;47.50;;;;;;5409112;26;20250;-73
2024/04/23 11:14:35;;;;;;;9.30;5.97;;;11.00;47.50;;;;;;5414133;26;20535;-73
2024/04/23 11:17:02;;;;;;;9.37;6.30;;;10.70;50.50;;;;;;5410200;26;20625;-75
2024/04/23 11:19:37;;;;;;;7.13;5.23;;;10.80;51.00;;;;;;5412164;26;20471;-73
2024/04/23 11:22:09;;;;;;;9.17;5.47;;;11.20;49.40;;;;;;5400809;26;20524;-75
2024/04/23 11:24:44;;;;;;;9.43;5.43;;;11.10;48.50;;;;;;5412237;26;20568;-74
2024/04/23 11:27:13;;;;;;;9.83;6.07;;;11.00;49.10;;;;;;5411273;26;20478;-74
2024/04/23 11:29:43;;;;;;;7.60;5.83;;;10.80;49.30;;;;;;5408624;26;22656;-72
2024/04/23 11:32:10;;;;;;;8.23;5.63;;;10.70;48.30;;;;;;5416720;26;20593;-76
2024/04/23 11:34:41;;;;;;;13.00;5.40;;;10.90;48.30;;;;;;5386065;26;20544;-73
2024/04/23 11:37:08;;;;;;;9.10;6.27;;;11.10;47.30;;;;;;5416044;26;20524;-73
2024/04/23 11:39:34;;;;;;;7.47;5.80;;;10.80;47.30;;;;;;5420596;26;21117;-77
2024/04/23 11:41:59;;;;;;;9.03;5.70;;;10.30;48.50;;;;;;5410176;26;20471;-75
2024/04/23 11:44:28;;;;;;;7.47;5.87;;;10.00;48.70;;;;;;5411527;26;20237;-75
2024/04/23 11:46:57;;;;;;;9.73;6.30;;;9.90;49.90;;;;;;5412509;26;20234;-74
2024/04/23 11:49:26;;;;;;;9.33;5.93;;;10.00;51.40;;;;;;5408948;26;20515;-75
2024/04/23 11:51:54;;;;;;;9.40;6.20;;;10.00;51.60;;;;;;5399807;26;20583;-74
2024/04/23 11:54:21;;;;;;;14.53;6.77;;;10.00;51.80;;;;;;5411623;26;20552;-76
2024/04/23 11:56:48;;;;;;;9.60;5.80;;;9.80;52.40;;;;;;5405456;26;20455;-74
2024/04/23 11:59:22;;;;;;;11.90;5.83;;;9.90;52.50;;;;;;5412455;26;21182;-75
2024/04/23 12:01:50;;;;;;;8.53;5.50;;;9.90;52.80;;;;;;5370780;26;20534;-74
2024/04/23 12:04:18;;;;;;;8.60;5.30;;;10.40;51.60;;;;;;5410882;26;20557;-72
2024/04/23 12:06:44;;;;;;;9.23;6.03;;;10.90;48.60;;;;;;5412512;26;20515;-73
2024/04/23 12:09:14;;;;;;;11.80;6.00;;;11.10;48.30;;;;;;5379997;26;20479;-74
2024/04/23 12:11:44;;;;;;;7.50;5.60;;;11.00;47.40;;;;;;5408807;26;20542;-77
2024/04/23 12:14:12;;;;;;;8.70;5.27;;;10.30;48.30;;;;;;5406251;26;20609;-73
2024/04/23 12:16:44;;;;;;;9.50;6.17;;;10.20;49.10;;;;;;5411546;26;21004;-73
2024/04/23 12:19:10;;;;;;;7.47;5.40;;;10.40;49.10;;;;;;5412012;26;20586;-73
2024/04/23 12:21:37;;;;;;;7.20;5.20;;;10.40;49.40;;;;;;5409615;26;21578;-72
2024/04/23 12:24:03;;;;;;;10.93;5.60;;;10.80;48.10;;;;;;5408083;26;20506;-73
2024/04/23 12:26:31;;;;;;;7.60;5.60;;;11.30;46.20;;;;;;5405250;26;20483;-74
2024/04/23 12:28:56;;;;;;;7.67;5.23;;;11.80;46.10;;;;;;5421476;26;20641;-72
2024/04/23 12:31:24;;;;;;;8.80;5.40;;;12.40;44.70;;;;;;5412551;26;20575;-75
2024/04/23 12:33:59;;;;;;;8.83;5.63;;;12.70;43.80;;;;;;5410327;26;20316;-73
2024/04/23 12:36:25;;;;;;;11.83;6.63;;;11.50;46.10;;;;;;5407802;26;20459;-74
2024/04/23 12:38:51;;;;;;;8.00;5.90;;;10.80;48.30;;;;;;5410635;26;20533;-72
2024/04/23 12:41:19;;;;;;;8.70;5.43;;;10.70;49.90;;;;;;5412927;26;20487;-72
2024/04/23 12:43:46;;;;;;;11.43;5.97;;;10.60;49.80;;;;;;5407293;26;20241;-73
2024/04/23 12:46:13;;;;;;;8.93;6.43;;;10.50;49.70;;;;;;5417265;26;20843;-74
2024/04/23 12:48:42;;;;;;;7.10;5.53;;;10.70;50.10;;;;;;5420932;26;20460;-75
2024/04/23 12:51:08;;;;;;;8.33;4.90;;;10.60;49.70;;;;;;5406673;26;20531;-74
2024/04/23 12:53:34;;;;;;;7.83;6.13;;;11.30;48.50;;;;;;5414615;26;20467;-78
2024/04/23 12:56:00;;;;;;;10.03;5.63;;;11.40;47.30;;;;;;5417070;26;20562;-73